createdAt,value
2023-04-02T00:00:18.184Z,2.88
2023-04-02T00:02:49.236Z,2.17
2023-04-02T00:05:51.259Z,2.40
2023-04-02T00:08:21.540Z,2.38
2023-04-02T00:10:49.939Z,2.60
2023-04-02T00:13:24.809Z,3.25
2023-04-02T00:15:53.303Z,2.85
2023-04-02T00:18:22.626Z,3.00
2023-04-02T00:20:52.185Z,4.30
2023-04-02T00:23:20.164Z,3.50
2023-04-02T00:25:47.921Z,3.92
2023-04-02T00:28:17.044Z,4.10
2023-04-02T00:30:49.139Z,4.63
2023-04-02T00:33:17.214Z,4.97
2023-04-02T00:35:46.236Z,4.80
2023-04-02T00:38:19.084Z,6.05
2023-04-02T00:40:47.045Z,6.13
2023-04-02T00:43:16.733Z,6.82
2023-04-02T00:45:51.112Z,7.93
2023-04-02T00:48:34.641Z,7.55
2023-04-02T00:51:11.575Z,8.13
2023-04-02T00:53:39.304Z,8.73
2023-04-02T00:56:09.493Z,10.35
2023-04-02T00:58:37.735Z,10.48
2023-04-02T01:01:17.432Z,11.40
2023-04-02T01:03:53.707Z,11.43
2023-04-02T01:06:23.894Z,12.45
2023-04-02T01:08:57.839Z,13.75
2023-04-02T01:11:32.891Z,14.68
2023-04-02T01:14:02.975Z,15.02
2023-04-02T01:16:36.402Z,15.10
2023-04-02T01:19:09.456Z,16.65
2023-04-02T01:21:43.028Z,16.88
2023-04-02T01:24:11.891Z,18.08
2023-04-02T01:26:53.860Z,19.55
2023-04-02T01:29:24.693Z,19.55
2023-04-02T01:31:52.749Z,21.30
2023-04-02T01:34:23.351Z,22.33
2023-04-02T01:36:59.649Z,23.20
2023-04-02T01:39:37.226Z,25.63
2023-04-02T01:42:07.395Z,27.00
2023-04-02T01:44:38.647Z,27.77
2023-04-02T01:47:08.307Z,29.20
2023-04-02T01:49:36.123Z,32.08
2023-04-02T01:52:03.889Z,32.03
2023-04-02T01:54:33.707Z,32.55
2023-04-02T01:57:01.478Z,33.78
2023-04-02T01:59:29.405Z,36.03
2023-04-02T02:02:04.355Z,37.97
2023-04-02T02:04:34.199Z,38.40
2023-04-02T02:07:01.997Z,39.70
2023-04-02T02:09:32.317Z,41.03
2023-04-02T02:12:00.171Z,43.22
2023-04-02T02:14:29.173Z,45.25
2023-04-02T02:16:57.667Z,46.13
2023-04-02T02:19:28.533Z,46.72
2023-04-02T02:21:57.604Z,49.67
2023-04-02T02:24:26.599Z,51.15
2023-04-02T02:27:01.928Z,53.28
2023-04-02T02:29:29.611Z,55.13
2023-04-02T02:31:57.491Z,56.35
2023-04-02T02:34:32.184Z,57.88
2023-04-02T02:37:01.276Z,59.53
2023-04-02T02:39:32.752Z,62.47
2023-04-02T02:42:02.166Z,65.40
2023-04-02T02:44:31.110Z,68.38
2023-04-02T02:47:00.987Z,71.43
2023-04-02T02:49:32.222Z,73.13
2023-04-02T02:52:07.596Z,75.50
2023-04-02T02:54:46.847Z,74.60
2023-04-02T02:57:15.778Z,79.55
2023-04-02T02:59:44.276Z,80.75
2023-04-02T03:02:12.031Z,82.35
2023-04-02T03:04:41.102Z,86.82
2023-04-02T03:07:16.109Z,86.25
2023-04-02T03:09:49.328Z,87.80
2023-04-02T03:12:28.455Z,87.10
2023-04-02T03:14:58.728Z,92.38
2023-04-02T03:17:28.833Z,94.15
2023-04-02T03:19:59.330Z,96.20
2023-04-02T03:22:29.723Z,95.20
2023-04-02T03:24:59.292Z,98.57
2023-04-02T03:27:28.945Z,100.15
2023-04-02T03:30:05.116Z,100.78
2023-04-02T03:32:36.627Z,101.30
2023-04-02T03:35:22.947Z,104.30
2023-04-02T03:37:54.075Z,105.57
2023-04-02T03:40:23.591Z,106.10
2023-04-02T03:42:53.538Z,108.65
2023-04-02T03:45:23.878Z,107.75
2023-04-02T03:47:53.799Z,113.43
2023-04-02T03:50:26.112Z,113.30
2023-04-02T03:52:58.087Z,114.07
2023-04-02T03:55:28.745Z,114.63
2023-04-02T03:57:59.284Z,115.30
2023-04-02T04:00:33.858Z,114.72
2023-04-02T04:03:04.412Z,117.03
2023-04-02T04:05:35.816Z,119.68
2023-04-02T04:08:06.022Z,120.75
2023-04-02T04:10:33.713Z,121.25
2023-04-02T04:13:04.038Z,126.40
2023-04-02T04:15:33.662Z,123.25
2023-04-02T04:18:04.328Z,120.05
2023-04-02T04:20:41.834Z,122.63
2023-04-02T04:23:11.919Z,127.68
2023-04-02T04:25:40.088Z,126.05
2023-04-02T04:28:17.140Z,124.68
2023-04-02T04:30:50.845Z,129.50
2023-04-02T04:33:23.105Z,126.43
2023-04-02T04:35:57.336Z,129.15
2023-04-02T04:38:32.628Z,127.18
2023-04-02T04:41:05.196Z,129.90
2023-04-02T04:43:42.048Z,127.47
2023-04-02T04:46:11.871Z,129.52
2023-04-02T04:48:42.393Z,125.97
2023-04-02T04:51:18.180Z,129.30
2023-04-02T04:53:47.738Z,128.57
2023-04-02T04:56:19.586Z,128.43
2023-04-02T04:58:53.785Z,127.13
2023-04-02T05:01:23.937Z,133.32
2023-04-02T05:03:53.049Z,126.13
2023-04-02T05:06:27.053Z,125.05
2023-04-02T05:08:56.516Z,127.88
2023-04-02T05:11:27.412Z,126.30
2023-04-02T05:13:56.338Z,128.57
2023-04-02T05:16:26.226Z,124.88
2023-04-02T05:18:56.755Z,126.15
2023-04-02T05:21:27.985Z,127.80
2023-04-02T05:23:57.199Z,128.82
2023-04-02T05:26:26.322Z,126.60
2023-04-02T05:28:55.685Z,124.38
2023-04-02T05:31:25.838Z,128.93
2023-04-02T05:33:54.392Z,129.27
2023-04-02T05:36:23.918Z,129.63
2023-04-02T05:38:57.633Z,125.97
2023-04-02T05:41:36.700Z,130.23
2023-04-02T05:44:07.562Z,126.40
2023-04-02T05:46:38.151Z,124.97
2023-04-02T05:49:08.573Z,122.40
2023-04-02T05:51:39.824Z,123.88
2023-04-02T05:54:16.986Z,125.03
2023-04-02T05:56:46.518Z,123.70
2023-04-02T05:59:16.748Z,120.22
2023-04-02T06:01:45.315Z,122.90
2023-04-02T06:04:21.610Z,120.25
2023-04-02T06:06:52.945Z,122.47
2023-04-02T06:09:31.525Z,121.32
2023-04-02T06:12:02.803Z,120.78
2023-04-02T06:14:30.602Z,120.65
2023-04-02T06:16:58.816Z,117.22
2023-04-02T06:19:30.114Z,118.57
2023-04-02T06:22:00.146Z,118.53
2023-04-02T06:24:29.518Z,116.30
2023-04-02T06:26:59.763Z,117.85
2023-04-02T06:29:30.101Z,118.65
2023-04-02T06:31:59.421Z,115.53
2023-04-02T06:34:28.562Z,115.32
2023-04-02T06:37:01.610Z,111.65
2023-04-02T06:39:32.172Z,113.07
2023-04-02T06:42:06.190Z,110.13
2023-04-02T06:44:52.121Z,109.50
2023-04-02T06:47:31.453Z,108.43
2023-04-02T06:50:01.854Z,107.15
2023-04-02T06:52:31.125Z,108.93
2023-04-02T06:55:01.120Z,108.18
2023-04-02T06:57:28.914Z,104.82
2023-04-02T06:59:56.596Z,104.45
2023-04-02T07:02:29.830Z,103.15
2023-04-02T07:05:02.332Z,105.10
2023-04-02T07:07:31.659Z,102.30
2023-04-02T07:10:03.973Z,100.70
2023-04-02T07:12:31.852Z,101.15
2023-04-02T07:14:59.541Z,103.00
2023-04-02T07:17:27.908Z,103.40
2023-04-02T07:19:55.781Z,97.65
2023-04-02T07:22:25.635Z,102.90
2023-04-02T07:24:58.638Z,100.38
2023-04-02T07:27:27.943Z,96.13
2023-04-02T07:29:55.733Z,94.28
2023-04-02T07:32:23.518Z,99.45
2023-04-02T07:34:51.634Z,95.35
2023-04-02T07:37:19.352Z,98.38
2023-04-02T07:39:47.056Z,96.05
2023-04-02T07:42:14.747Z,94.05
2023-04-02T07:44:43.820Z,92.63
2023-04-02T07:47:11.501Z,94.22
2023-04-02T07:49:39.180Z,95.85
2023-04-02T07:52:06.984Z,92.38
2023-04-02T07:54:35.680Z,90.78
2023-04-02T07:57:03.713Z,90.57
2023-04-02T07:59:31.454Z,88.45
2023-04-02T08:02:00.637Z,89.03
2023-04-02T08:04:28.331Z,87.03
2023-04-02T08:06:56.008Z,84.55
2023-04-02T08:09:23.671Z,81.45
2023-04-02T08:11:51.355Z,82.45
2023-04-02T08:14:19.035Z,120.68
2023-04-02T08:16:48.089Z,78.85
2023-04-02T08:19:17.217Z,76.88
2023-04-02T08:21:45.038Z,73.72
2023-04-02T08:24:12.762Z,74.57
2023-04-02T08:26:40.428Z,71.70
2023-04-02T08:29:08.094Z,66.72
2023-04-02T08:31:35.829Z,62.90
2023-04-02T08:34:03.552Z,61.88
2023-04-02T08:36:34.866Z,62.28
2023-04-02T08:39:02.790Z,58.63
2023-04-02T08:41:32.160Z,60.95
2023-04-02T08:44:15.157Z,54.65
2023-04-02T08:46:44.673Z,53.65
2023-04-02T08:49:13.618Z,49.80
2023-04-02T08:51:42.668Z,48.92
2023-04-02T08:54:19.344Z,45.75
2023-04-02T08:56:50.423Z,13.02
2023-04-02T08:59:21.921Z,10.98
2023-04-02T09:01:51.646Z,12.45
2023-04-02T09:04:21.197Z,7.80
2023-04-02T09:06:51.358Z,15.65
2023-04-02T09:09:19.216Z,14.95
2023-04-02T09:11:51.700Z,14.77
2023-04-02T09:14:20.759Z,22.42
2023-04-02T09:16:50.586Z,18.17
2023-04-02T09:19:20.897Z,22.95
2023-04-02T09:21:56.903Z,28.67
2023-04-02T09:24:24.722Z,19.35
2023-04-02T09:26:52.489Z,18.42
2023-04-02T09:29:35.503Z,25.50
2023-04-02T09:32:08.012Z,17.50
2023-04-02T09:34:36.430Z,20.88
2023-04-02T09:37:09.134Z,22.27
2023-04-02T09:39:37.200Z,17.15
2023-04-02T09:42:08.642Z,23.67
2023-04-02T09:44:36.983Z,37.72
2023-04-02T09:47:06.049Z,24.00
2023-04-02T09:49:34.346Z,29.10
2023-04-02T09:52:22.284Z,26.88
2023-04-02T09:55:21.689Z,25.67
2023-04-02T09:57:50.415Z,30.15
2023-04-02T10:00:31.661Z,28.63
2023-04-02T10:03:05.605Z,24.95
2023-04-02T10:05:40.617Z,26.38
2023-04-02T10:08:19.348Z,19.33
2023-04-02T10:10:48.772Z,17.58
2023-04-02T10:13:19.677Z,20.83
2023-04-02T10:15:49.678Z,21.70
2023-04-02T10:18:21.112Z,20.15
2023-04-02T10:20:51.529Z,24.58
2023-04-02T10:23:21.567Z,23.10
2023-04-02T10:25:50.773Z,38.53
2023-04-02T10:28:23.599Z,27.83
2023-04-02T10:30:54.997Z,28.80
2023-04-02T10:33:25.560Z,26.85
2023-04-02T10:35:55.322Z,38.83
2023-04-02T10:38:30.938Z,52.83
2023-04-02T10:41:00.338Z,26.02
2023-04-02T10:43:54.746Z,30.70
2023-04-02T10:46:25.409Z,31.00
2023-04-02T10:48:58.355Z,50.95
2023-04-02T10:51:29.933Z,30.95
2023-04-02T10:54:02.145Z,16.42
2023-04-02T10:56:37.696Z,20.95
2023-04-02T10:59:14.470Z,25.08
2023-04-02T11:01:42.312Z,32.38
2023-04-02T11:04:15.795Z,21.85
2023-04-02T11:06:44.808Z,22.48
2023-04-02T11:09:16.718Z,20.63
2023-04-02T11:11:45.397Z,26.83
2023-04-02T11:14:14.753Z,23.17
2023-04-02T11:16:44.580Z,21.25
2023-04-02T11:19:24.408Z,21.50
2023-04-02T11:21:58.709Z,24.70
2023-04-02T11:24:37.804Z,24.40
2023-04-02T11:27:06.999Z,23.95
2023-04-02T11:29:34.978Z,24.45
2023-04-02T11:32:15.572Z,22.77
2023-04-02T11:35:20.172Z,20.50
2023-04-02T11:37:49.616Z,16.88
2023-04-02T11:40:47.671Z,23.67
2023-04-02T11:43:50.814Z,23.52
2023-04-02T11:46:41.041Z,19.05
2023-04-02T11:49:34.960Z,20.15
2023-04-02T11:52:11.513Z,14.00
2023-04-02T11:54:40.402Z,17.17
2023-04-02T11:57:13.973Z,25.75
2023-04-02T11:59:44.025Z,24.85
2023-04-02T12:02:15.092Z,16.08
2023-04-02T12:05:04.197Z,24.55
2023-04-02T12:07:37.112Z,13.77
2023-04-02T12:10:05.769Z,15.77
2023-04-02T12:12:37.397Z,16.48
2023-04-02T12:15:08.470Z,14.38
2023-04-02T12:17:37.270Z,18.00
2023-04-02T12:20:20.245Z,15.07
2023-04-02T12:22:50.583Z,16.67
2023-04-02T12:25:24.399Z,10.95
2023-04-02T12:28:06.354Z,10.35
2023-04-02T12:30:34.225Z,12.00
2023-04-02T12:33:16.306Z,10.15
2023-04-02T12:35:44.521Z,13.60
2023-04-02T12:38:22.677Z,12.95
2023-04-02T12:40:53.990Z,14.45
2023-04-02T12:43:27.090Z,12.95
2023-04-02T12:45:55.205Z,15.30
2023-04-02T12:48:23.188Z,12.57
2023-04-02T12:50:50.902Z,12.70
2023-04-02T12:53:21.475Z,21.10
2023-04-02T12:55:49.299Z,13.00
2023-04-02T12:58:27.408Z,13.43
2023-04-02T13:01:10.414Z,13.27
2023-04-02T13:03:38.206Z,18.15
2023-04-02T13:06:12.841Z,15.88
2023-04-02T13:08:42.689Z,21.02
2023-04-02T13:11:10.521Z,29.83
2023-04-02T13:13:40.321Z,32.25
2023-04-02T13:16:22.452Z,44.20
2023-04-02T13:18:50.961Z,108.53
2023-04-02T13:21:28.343Z,40.22
2023-04-02T13:23:56.482Z,50.95
2023-04-02T13:26:25.689Z,45.97
2023-04-02T13:28:59.010Z,55.60
2023-04-02T13:31:26.721Z,45.00
2023-04-02T13:33:54.436Z,45.90
2023-04-02T13:36:22.104Z,47.92
2023-04-02T13:38:49.776Z,58.72
2023-04-02T13:41:22.557Z,58.90
2023-04-02T13:43:50.783Z,27.55
2023-04-02T13:46:22.259Z,36.45
2023-04-02T13:48:50.454Z,32.50
2023-04-02T13:51:18.752Z,48.97
2023-04-02T13:53:46.953Z,44.85
2023-04-02T13:56:14.673Z,29.58
2023-04-02T13:58:42.410Z,22.55
2023-04-02T14:01:10.141Z,34.40
2023-04-02T14:03:39.192Z,10.82
2023-04-02T14:06:10.482Z,10.00
2023-04-02T14:08:44.853Z,7.18
2023-04-02T14:11:29.089Z,15.05
2023-04-02T14:14:21.748Z,7.88
2023-04-02T14:16:53.254Z,8.90
2023-04-02T14:19:29.902Z,22.17
2023-04-02T14:22:01.922Z,42.45
2023-04-02T14:24:31.673Z,36.95
2023-04-02T14:27:21.062Z,25.52
2023-04-02T14:29:51.514Z,24.27
2023-04-02T14:32:21.800Z,16.95
2023-04-02T14:34:53.940Z,29.88
2023-04-02T14:37:23.890Z,22.90
2023-04-02T14:39:57.450Z,40.75
2023-04-02T14:42:28.779Z,39.83
2023-04-02T14:44:58.727Z,33.63
2023-04-02T14:47:29.200Z,22.75
2023-04-02T14:49:59.916Z,93.18
2023-04-02T14:52:28.230Z,25.48
2023-04-02T14:54:57.485Z,28.45
2023-04-02T14:57:26.368Z,17.65
2023-04-02T14:59:58.934Z,23.85
2023-04-02T15:02:31.459Z,21.52
2023-04-02T15:05:01.788Z,21.60
2023-04-02T15:07:32.007Z,16.17
2023-04-02T15:10:05.972Z,17.50
2023-04-02T15:12:34.455Z,19.80
2023-04-02T15:15:04.777Z,14.73
2023-04-02T15:17:32.632Z,18.35
2023-04-02T15:20:09.631Z,18.30
2023-04-02T15:22:38.267Z,15.48
2023-04-02T15:25:14.838Z,17.05
2023-04-02T15:27:53.205Z,19.50
2023-04-02T15:30:23.055Z,27.05
2023-04-02T15:32:51.332Z,14.68
2023-04-02T15:35:32.530Z,18.70
2023-04-02T15:38:02.225Z,19.98
2023-04-02T15:40:47.660Z,20.33
2023-04-02T15:43:19.741Z,16.33
2023-04-02T15:45:52.056Z,28.92
2023-04-02T15:48:37.544Z,30.15
2023-04-02T15:51:13.981Z,42.47
2023-04-02T15:53:48.195Z,57.92
2023-04-02T15:56:30.164Z,59.45
2023-04-02T15:59:03.435Z,26.45
2023-04-02T16:01:35.802Z,187.55
2023-04-02T16:04:19.400Z,39.08
2023-04-02T16:07:09.405Z,29.80
2023-04-02T16:09:40.520Z,60.50
2023-04-02T16:12:12.446Z,29.02
2023-04-02T16:14:44.214Z,27.45
2023-04-02T16:17:24.409Z,28.38
2023-04-02T16:19:54.170Z,23.92
2023-04-02T16:22:25.213Z,26.30
2023-04-02T16:24:57.014Z,23.63
2023-04-02T16:27:26.936Z,19.48
2023-04-02T16:29:59.908Z,26.27
2023-04-02T16:32:40.169Z,26.33
2023-04-02T16:35:38.175Z,23.77
2023-04-02T16:38:07.652Z,25.33
2023-04-02T16:40:38.966Z,17.45
2023-04-02T16:43:13.065Z,22.13
2023-04-02T16:45:43.696Z,20.52
2023-04-02T16:48:14.683Z,23.02
2023-04-02T16:50:47.501Z,18.17
2023-04-02T16:53:22.997Z,17.52
2023-04-02T16:56:03.328Z,18.27
2023-04-02T16:58:37.375Z,15.73
2023-04-02T17:01:08.527Z,16.73
2023-04-02T17:04:10.891Z,16.17
2023-04-02T17:06:42.259Z,12.98
2023-04-02T17:09:16.142Z,17.27
2023-04-02T17:11:46.304Z,19.13
2023-04-02T17:14:21.209Z,18.20
2023-04-02T17:16:51.086Z,15.00
2023-04-02T17:19:18.829Z,13.27
2023-04-02T17:21:47.246Z,14.48
2023-04-02T17:24:22.340Z,11.25
2023-04-02T17:26:52.493Z,11.98
2023-04-02T17:29:21.296Z,16.42
2023-04-02T17:31:49.063Z,11.70
2023-04-02T17:34:17.522Z,13.35
2023-04-02T17:36:48.111Z,12.82
2023-04-02T17:39:20.071Z,8.30
2023-04-02T17:41:49.792Z,12.18
2023-04-02T17:44:29.488Z,11.80
2023-04-02T17:46:59.817Z,8.32
2023-04-02T17:49:37.309Z,10.65
2023-04-02T17:52:06.732Z,8.48
2023-04-02T17:54:40.092Z,12.27
2023-04-02T17:57:16.613Z,11.13
2023-04-02T17:59:50.335Z,11.80
2023-04-02T18:02:28.928Z,6.68
2023-04-02T18:04:58.845Z,11.68
2023-04-02T18:07:32.056Z,8.18
2023-04-02T18:10:04.648Z,12.10
2023-04-02T18:12:44.355Z,12.05
2023-04-02T18:15:28.670Z,11.00
2023-04-02T18:17:59.320Z,11.20
2023-04-02T18:20:30.852Z,7.93
2023-04-02T18:23:01.938Z,10.05
2023-04-02T18:25:42.706Z,12.55
2023-04-02T18:28:17.264Z,8.13
2023-04-02T18:30:48.151Z,8.18
2023-04-02T18:33:22.931Z,10.60
2023-04-02T18:35:54.414Z,9.73
2023-04-02T18:38:24.757Z,7.82
2023-04-02T18:41:08.191Z,9.48
2023-04-02T18:43:43.211Z,7.20
2023-04-02T18:46:14.592Z,6.97
2023-04-02T18:48:45.678Z,7.97
2023-04-02T18:51:16.351Z,6.40
2023-04-02T18:53:44.163Z,5.72
2023-04-02T18:56:15.003Z,7.93
2023-04-02T18:58:49.203Z,6.85
2023-04-02T19:01:18.281Z,6.90
2023-04-02T19:03:47.581Z,5.20
2023-04-02T19:06:19.106Z,6.97
2023-04-02T19:08:48.381Z,8.80
2023-04-02T19:11:18.929Z,7.18
2023-04-02T19:13:48.306Z,4.75
2023-04-02T19:16:35.745Z,6.43
2023-04-02T19:19:06.644Z,5.90
2023-04-02T19:21:37.371Z,6.82
2023-04-02T19:24:13.651Z,8.63
2023-04-02T19:26:45.156Z,7.88
2023-04-02T19:29:19.702Z,5.07
2023-04-02T19:31:50.847Z,6.00
2023-04-02T19:34:21.315Z,4.30
2023-04-02T19:36:49.411Z,7.07
2023-04-02T19:39:30.899Z,5.25
2023-04-02T19:42:01.707Z,4.45
2023-04-02T19:44:29.379Z,4.88
2023-04-02T19:46:57.108Z,4.20
2023-04-02T19:49:26.595Z,6.13
2023-04-02T19:51:54.317Z,4.68
2023-04-02T19:54:22.050Z,5.53
2023-04-02T19:56:49.775Z,8.23
2023-04-02T19:59:19.066Z,2.88
2023-04-02T20:01:46.968Z,3.92
2023-04-02T20:04:14.952Z,4.50
2023-04-02T20:06:43.309Z,2.95
2023-04-02T20:09:11.022Z,5.00
2023-04-02T20:11:39.042Z,3.42
2023-04-02T20:14:06.760Z,6.00
2023-04-02T20:16:36.892Z,6.18
2023-04-02T20:19:04.652Z,5.72
2023-04-02T20:21:37.982Z,5.72
2023-04-02T20:24:06.508Z,4.53
2023-04-02T20:26:34.706Z,5.40
2023-04-02T20:29:02.531Z,4.30
2023-04-02T20:31:31.505Z,4.82
2023-04-02T20:34:02.381Z,5.32
2023-04-02T20:36:30.309Z,3.33
2023-04-02T20:38:58.582Z,3.60
2023-04-02T20:41:26.509Z,4.68
2023-04-02T20:43:54.310Z,3.28
2023-04-02T20:46:22.380Z,4.15
2023-04-02T20:48:50.142Z,3.63
2023-04-02T20:51:19.256Z,4.35
2023-04-02T20:53:47.680Z,3.78
2023-04-02T20:56:16.293Z,4.03
2023-04-02T20:58:44.083Z,3.80
2023-04-02T21:01:12.867Z,3.88
2023-04-02T21:03:40.697Z,5.07
2023-04-02T21:06:12.717Z,4.45
2023-04-02T21:08:41.808Z,3.28
2023-04-02T21:11:09.647Z,3.10
2023-04-02T21:13:37.518Z,4.90
2023-04-02T21:16:05.783Z,3.35
2023-04-02T21:18:33.575Z,5.90
2023-04-02T21:21:01.732Z,3.15
2023-04-02T21:23:29.438Z,3.50
2023-04-02T21:25:59.205Z,2.85
2023-04-02T21:28:26.890Z,2.15
2023-04-02T21:31:01.952Z,3.17
2023-04-02T21:33:29.674Z,5.07
2023-04-02T21:35:57.441Z,3.25
2023-04-02T21:38:25.774Z,2.55
2023-04-02T21:40:53.459Z,3.92
2023-04-02T21:43:22.430Z,2.80
2023-04-02T21:45:50.152Z,2.47
2023-04-02T21:48:17.913Z,3.10
2023-04-02T21:50:46.109Z,3.47
2023-04-02T21:53:13.813Z,4.75
2023-04-02T21:55:41.485Z,2.95
2023-04-02T21:58:09.126Z,2.38
2023-04-02T22:00:38.534Z,4.20
2023-04-02T22:03:06.405Z,2.08
2023-04-02T22:05:34.369Z,2.35
2023-04-02T22:08:02.319Z,4.63
2023-04-02T22:10:30.038Z,3.75
2023-04-02T22:12:57.695Z,2.47
2023-04-02T22:15:25.505Z,3.60
2023-04-02T22:17:54.639Z,2.90
2023-04-02T22:20:22.373Z,2.75
2023-04-02T22:22:50.406Z,2.63
2023-04-02T22:25:18.164Z,2.78
2023-04-02T22:27:45.928Z,3.00
2023-04-02T22:30:14.058Z,2.97
2023-04-02T22:32:41.763Z,1.88
2023-04-02T22:35:11.090Z,2.95
2023-04-02T22:37:38.766Z,3.13
2023-04-02T22:40:07.832Z,3.67
2023-04-02T22:42:35.505Z,2.00
2023-04-02T22:45:04.741Z,2.55
2023-04-02T22:47:32.449Z,2.45
2023-04-02T22:50:00.177Z,2.10
2023-04-02T22:52:29.198Z,2.10
2023-04-02T22:54:56.882Z,2.03
2023-04-02T22:57:24.628Z,3.42
2023-04-02T22:59:52.283Z,3.28
2023-04-02T23:02:19.982Z,3.42
2023-04-02T23:04:47.699Z,2.15
2023-04-02T23:07:15.372Z,2.45
2023-04-02T23:09:44.348Z,3.67
2023-04-02T23:12:12.212Z,2.65
2023-04-02T23:14:39.858Z,2.47
2023-04-02T23:17:07.587Z,2.83
2023-04-02T23:19:35.406Z,1.80
2023-04-02T23:22:03.106Z,2.25
2023-04-02T23:24:30.809Z,2.65
2023-04-02T23:26:59.820Z,5.07
2023-04-02T23:29:27.507Z,3.10
2023-04-02T23:31:55.249Z,3.30
2023-04-02T23:34:22.959Z,4.13
2023-04-02T23:36:50.649Z,4.55
2023-04-02T23:39:20.058Z,4.70
2023-04-02T23:41:48.544Z,4.90
2023-04-02T23:44:17.592Z,5.55
2023-04-02T23:46:45.400Z,6.22
2023-04-02T23:49:13.427Z,7.30
2023-04-02T23:51:41.693Z,7.82
2023-04-02T23:54:09.426Z,8.68
2023-04-02T23:56:37.092Z,9.98
2023-04-02T23:59:04.950Z,10.02
